Airfield :
LOGIN :

Register | Disclaimer

   EN    FR    IT 

 










Legend :    VFR   Marginal VFR   IFR   Intensive IFR   Very Intensive IFR
Visi :
Ceiling :
>= 8 km
>= 3000ft
5 to 8 km
1000 to 3000 ft
1500m to 5 km
500 to 1000 ft
800 to 1500m
200 to 500 ft
< 800m
< 200 ft
Symbols :   Thunderstorms  Fog  Heavy snow  Heavy precipitations  Wind > 20 kt
SIGMETs :     Misc.  Thunderstorms  Icing  Turbulence  Mountain Waves  Volcanic Ashes







- Airport Elevation : 1197 ft
- IATA code : SPM


ETAD - Spangdahlem Ab

CURRENT METAR :
  • 172118Z AUTO 27008KT 9999 BKN015 00/M02 A2987 RMK AO2 SNE06RAB06E14UPB14E17RAB17E18 BKN V OVC CIG 014 RWY23 SLP122 $

EXPIRED METARs :
  • 172056Z AUTO 28011G16KT 9999 -SN OVC018 01/M02 A2986 RMK AO2 RAB1959E12RAB27E38SNB50 CIG 017 RWY23 SLP118 P0000 60000 T00071022 52024 $
  • 172038Z AUTO 28008KT 9999 OVC018 01/M02 A2985 RMK AO2 RAB1959E12RAB27E38 CIG 016 RWY23 SLP115 $
  • 172027Z AUTO 27009KT 9999 -RA OVC016 01/M02 A2984 RMK AO2 RAB1959E12RAB27 SLP111 $
  • 172012Z AUTO 26011KT 9999 OVC018 00/M02 A2983 RMK AO2 RAB1959E12 OVC V BKN CIG 016 RWY23 SLP108 $
  • 171959Z AUTO 26011G16KT 9999 -RA BKN018 BKN023 OVC033 00/M02 A2982 RMK AO2 RAB59 CIG 018V024 BKN018 V SCT SLP104 $
  • 171956Z AUTO 26010G16KT 9999 BKN018 BKN023 OVC035 00/M02 A2982 RMK AO2 RAB39E50 CIG 018V024 BKN018 V SCT SLP104 P0000 T00041025 $
  • 171939Z AUTO 26010KT 9999 -RA FEW020 SCT024 BKN036 BKN045 00/M02 A2982 RMK AO2 RAB39 SLP104 $
  • 171856Z AUTO 25012KT 9999 SCT038 00/M02 A2980 RMK AO2 SLP098 T00021022 $

TAF TAF ETAD
Valid from the 17 at 21:00 until the 19 at 03:00 UTC


172100Z 1721/1903 28009KT 9999 OVC015 620153 QNH2985INS
TEMPO 1721/1724 8000 -SN
BECMG 1801/1802 27006KT 9999 FEW005 SCT010 QNH2994INS
BECMG 1806/1807 26005KT 9999 FEW010 QNH3000INS
BECMG 1809/1810 23005KT 9999 FEW010 QNH3001INS
BECMG 1819/1820 12005KT 9999 FEW010 QNH2999INS TX01/1813Z TNM03/1823Z LAST NO AMDS AFT 1721 NEXT 1805
No reported NOTAMs for that airfield.



MET'MAP, your aeronautical weather chart ! - Copyright ORBIFLY December 2007 - Disclaimer

ORBIFLY MET'MAP TEAM :

Programming & Development : Alexandra Zaïnal
Concept & Development : Baudouin d'Aumeries
Co-Development & Prog : Marc-Olivier Méhu
Technical & hardware support : Manuel Goepfert

Contact : metmap@orbifly.com




SOURCES & CREDITS :

   NOAA